KFUL

Fullerton Municipal Airport

Fullerton, California, USA
METAR KFUL 191524Z 00000KT 8SM SCT013 23/18 A2995 RMK AO2 T02330183
Observed Flight Rules
Aug-19 @ 15:24 UTC (15 minutes ago) Visual Flight Rules
Visibility Clouds
8 miles
  • Scattered at 1,300' AGL
Temperatures Readings
Current 23°C / 73°F
Dewpoint 18°C / 64°F
Humidity 74%
Altimeter 29.95" Hg
Pressure 1014 hPa
Elevation 35
METAR KFUL 191524Z 00000KT 8SM SCT013 23/18 A2995 RMK AO2 T02330183
Observed Flight Rules
Aug-19 @ 15:24 UTC
(15 minutes ago)
VFR
Clouds
  • Scattered at 1,300' AGL
Temperature Dewpoint
23°C / 73°F 18°C / 64°F
Humidity Altimeter Pressure
74% 29.95" Hg 1014 hPa